Time;durP1;ratioP1;P1;durP2;ratioP2;P2;SDS_P1;SDS_P2;PMS_P1;PMS_P2;Temp;Humidity;BMP_temperature;BMP_pressure;BME280_temperature;BME280_humidity;BME280_pressure;Samples;Min_cycle;Max_cycle;Signal;HPM_P1;HPM_P2
2022/09/18 00:01:14;;;;;;;;;;;10.80;99.90;;;;;;5111186;28;20036;-82
2022/09/18 00:03:40;;;;;;;5.93;1.73;;;10.80;99.90;;;;;;5109128;28;19939;-84
2022/09/18 00:06:08;;;;;;;2.58;1.98;;;10.80;99.90;;;;;;5109824;28;20027;-83
2022/09/18 00:08:33;;;;;;;4.75;3.05;;;10.80;99.90;;;;;;5109707;28;20030;-83
2022/09/18 00:11:02;;;;;;;;;;;10.80;99.90;;;;;;5106021;28;20032;-83
2022/09/18 00:13:28;;;;;;;4.53;2.40;;;10.80;99.90;;;;;;5105902;28;20002;-84
2022/09/18 00:15:54;;;;;;;;;;;10.80;99.90;;;;;;5089747;28;20515;-83
2022/09/18 00:18:20;;;;;;;3.20;1.85;;;10.80;99.90;;;;;;5123509;27;19912;-85
2022/09/18 00:20:45;;;;;;;;;;;10.80;99.90;;;;;;5089569;28;20020;-84
2022/09/18 00:23:11;;;;;;;5.90;2.40;;;10.80;99.90;;;;;;5088796;28;19908;-82
2022/09/18 00:25:36;;;;;;;;;;;10.80;99.90;;;;;;5089939;28;20058;-83
2022/09/18 00:28:02;;;;;;;4.68;2.40;;;10.80;99.90;;;;;;5102261;28;20000;-83
2022/09/18 00:30:27;;;;;;;;;;;10.80;99.90;;;;;;5109355;28;20484;-84
2022/09/18 00:32:53;;;;;;;3.83;2.10;;;10.70;99.90;;;;;;5110016;28;19915;-84
2022/09/18 00:35:19;;;;;;;;;;;10.80;99.90;;;;;;5111269;28;20306;-84
2022/09/18 00:37:44;;;;;;;4.80;1.92;;;10.80;99.90;;;;;;5108105;28;20333;-85
2022/09/18 00:40:10;;;;;;;;;;;10.80;99.90;;;;;;5109714;28;20057;-84
2022/09/18 00:42:35;;;;;;;4.78;1.83;;;10.70;99.90;;;;;;5110284;28;19904;-84
2022/09/18 00:45:02;;;;;;;;;;;10.80;99.90;;;;;;5110148;28;20479;-84
2022/09/18 00:47:31;;;;;;;3.13;1.35;;;10.80;99.90;;;;;;5109386;28;19995;-84
2022/09/18 00:50:11;;;;;;;4.25;1.30;;;10.80;99.90;;;;;;5111359;28;20031;-83
2022/09/18 00:52:48;;;;;;;5.03;1.35;;;10.70;99.90;;;;;;5091152;28;20550;-83
2022/09/18 00:55:17;;;;;;;3.25;1.60;;;10.80;99.90;;;;;;5089141;28;20553;-84
2022/09/18 00:57:50;;;;;;;5.50;0.93;;;10.80;99.90;;;;;;5088639;28;20083;-83
2022/09/18 01:00:15;;;;;;;5.15;1.00;;;10.70;99.90;;;;;;5102642;28;20138;-84
2022/09/18 01:02:42;;;;;;;;;;;10.70;99.90;;;;;;5102524;28;20016;-83
2022/09/18 01:05:09;;;;;;;3.17;1.10;;;10.70;99.90;;;;;;5088375;28;19908;-84
2022/09/18 01:08:11;;;;;;;2.97;0.80;;;10.70;99.90;;;;;;5088557;28;20028;-84
2022/09/18 01:11:16;;;;;;;1.75;0.70;;;10.70;99.90;;;;;;5101780;28;20508;-83
2022/09/18 01:14:01;;;;;;;2.40;0.70;;;10.70;99.90;;;;;;5021020;28;20044;-85
2022/09/18 01:16:46;;;;;;;2.38;1.23;;;10.70;99.90;;;;;;5088740;28;20064;-85
2022/09/18 01:19:15;;;;;;;2.17;0.70;;;10.70;99.90;;;;;;5089756;28;20032;-84
2022/09/18 01:21:59;;;;;;;2.28;0.57;;;10.60;99.90;;;;;;5088834;28;20024;-85
2022/09/18 01:24:57;;;;;;;1.48;0.60;;;10.70;99.90;;;;;;5090540;28;20024;-85
2022/09/18 01:27:29;;;;;;;1.55;0.55;;;10.70;99.90;;;;;;5039432;28;20083;-84
2022/09/18 01:30:09;;;;;;;1.17;0.43;;;10.70;99.90;;;;;;5089364;28;20038;-84
2022/09/18 01:32:42;;;;;;;0.98;0.40;;;10.70;99.90;;;;;;5088672;28;20040;-83
2022/09/18 01:35:31;;;;;;;2.35;0.75;;;10.70;99.90;;;;;;5089716;28;20070;-84
2022/09/18 01:38:21;;;;;;;3.03;0.40;;;10.70;99.90;;;;;;5088676;28;20028;-84
2022/09/18 01:40:55;;;;;;;2.13;0.40;;;10.70;99.90;;;;;;5088972;28;20039;-84
2022/09/18 01:43:23;;;;;;;0.57;0.30;;;10.70;99.90;;;;;;5094782;28;20030;-84
2022/09/18 01:45:53;;;;;;;1.85;0.60;;;10.70;99.90;;;;;;5109216;28;20241;-85
2022/09/18 01:48:32;;;;;;;2.00;0.40;;;10.70;99.90;;;;;;5109028;28;20026;-84
2022/09/18 01:51:23;;;;;;;4.07;0.40;;;10.70;99.90;;;;;;5108823;28;20035;-85
2022/09/18 01:54:14;;;;;;;2.63;0.50;;;10.70;99.90;;;;;;5108331;28;20064;-85
2022/09/18 01:56:49;;;;;;;4.20;0.30;;;10.70;99.90;;;;;;5109899;28;20032;-86
2022/09/18 01:59:23;;;;;;;0.60;0.30;;;10.70;99.90;;;;;;5106992;28;20048;-86
2022/09/18 02:01:52;;;;;;;1.67;0.30;;;10.70;99.90;;;;;;5093282;28;20108;-85
2022/09/18 02:04:25;;;;;;;0.60;0.30;;;10.70;99.90;;;;;;5109103;28;20034;-84
2022/09/18 02:07:14;;;;;;;0.50;0.20;;;10.70;99.90;;;;;;5108985;28;20035;-84
2022/09/18 02:09:41;;;;;;;2.05;0.50;;;10.70;99.90;;;;;;5108809;28;20051;-85
2022/09/18 02:12:11;;;;;;;1.58;0.30;;;10.70;99.90;;;;;;5095470;28;20161;-85
2022/09/18 02:14:48;;;;;;;1.25;0.30;;;10.70;99.90;;;;;;5090996;28;20546;-85
2022/09/18 02:17:22;;;;;;;0.70;0.38;;;10.70;99.90;;;;;;5088824;28;20038;-86
2022/09/18 02:19:53;;;;;;;0.47;0.30;;;10.70;99.90;;;;;;5086955;28;20034;-84
2022/09/18 02:22:21;;;;;;;0.75;0.20;;;10.70;99.90;;;;;;5086162;28;20028;-83
2022/09/18 02:24:50;;;;;;;3.00;0.30;;;10.60;99.90;;;;;;5088125;28;20028;-81
2022/09/18 02:27:18;;;;;;;0.80;0.28;;;10.60;99.90;;;;;;5085668;28;20028;-83
2022/09/18 02:29:45;;;;;;;1.90;0.30;;;10.60;99.90;;;;;;5088551;28;20024;-85
2022/09/18 02:32:12;;;;;;;0.75;0.30;;;10.60;99.90;;;;;;5090322;28;20044;-85
2022/09/18 02:34:38;;;;;;;1.27;0.70;;;10.60;99.90;;;;;;5091670;28;20024;-85
2022/09/18 02:37:09;;;;;;;;;;;10.50;99.90;;;;;;5111485;28;20028;-86
2022/09/18 02:39:58;;;;;;;0.40;0.30;;;10.60;99.90;;;;;;5109910;28;19935;-84
2022/09/18 02:42:31;;;;;;;1.13;0.30;;;10.50;99.90;;;;;;5108820;28;20554;-85
2022/09/18 02:45:02;;;;;;;0.77;0.30;;;10.50;99.90;;;;;;5108865;28;20081;-84
2022/09/18 02:47:40;;;;;;;0.47;0.30;;;10.50;99.90;;;;;;5109235;28;20076;-83
2022/09/18 02:50:06;;;;;;;0.47;0.20;;;10.50;99.90;;;;;;5112257;28;20042;-86
2022/09/18 02:52:33;;;;;;;;;;;10.50;99.90;;;;;;5114545;28;20399;-87
2022/09/18 02:55:21;;;;;;;2.15;0.63;;;10.50;99.90;;;;;;5113913;28;19904;-87
2022/09/18 02:58:25;;;;;;;1.60;0.63;;;10.40;99.90;;;;;;5113496;28;20138;-86
2022/09/18 03:00:53;;;;;;;1.35;0.40;;;10.40;99.90;;;;;;5112290;28;20049;-86
2022/09/18 03:03:19;;;;;;;1.30;0.40;;;10.40;99.90;;;;;;5113598;28;20737;-88
2022/09/18 03:05:44;;;;;;;;;;;10.40;99.90;;;;;;5114501;28;20027;-87
2022/09/18 03:08:11;;;;;;;1.75;0.55;;;10.30;99.90;;;;;;5115767;28;19973;-87
2022/09/18 03:10:37;;;;;;;2.70;0.40;;;10.30;99.90;;;;;;5114921;28;20027;-88
2022/09/18 03:13:02;;;;;;;;;;;10.30;99.90;;;;;;5114588;28;20027;-87
2022/09/18 03:15:28;;;;;;;1.00;0.38;;;10.30;99.90;;;;;;5114027;28;20009;-87
2022/09/18 03:17:53;;;;;;;;;;;10.30;99.90;;;;;;5112120;28;20110;-88
2022/09/18 03:20:19;;;;;;;1.77;0.50;;;10.30;99.90;;;;;;5096353;28;20031;-87
2022/09/18 03:22:44;;;;;;;;;;;10.30;99.90;;;;;;5093793;28;20062;-87
2022/09/18 03:25:14;;;;;;;2.40;0.68;;;10.30;99.90;;;;;;5093242;28;19904;-86
2022/09/18 03:27:41;;;;;;;1.75;0.63;;;10.30;99.90;;;;;;5092626;28;20085;-88
2022/09/18 03:30:07;;;;;;;3.58;0.70;;;10.20;99.90;;;;;;5093101;28;20035;-87
2022/09/18 03:32:33;;;;;;;3.15;0.70;;;10.20;99.90;;;;;;5094087;28;20035;-88
2022/09/18 03:34:59;;;;;;;;;;;10.20;99.90;;;;;;5093357;28;20028;-87
2022/09/18 03:37:25;;;;;;;3.78;1.23;;;10.20;99.90;;;;;;5093872;28;20045;-87
2022/09/18 03:39:50;;;;;;;;;;;10.20;99.90;;;;;;5093711;28;20020;-88
2022/09/18 03:42:16;;;;;;;2.85;1.00;;;10.10;99.90;;;;;;5093794;28;20352;-87
2022/09/18 03:44:41;;;;;;;;;;;10.10;99.90;;;;;;5111888;28;20035;-84
2022/09/18 03:47:08;;;;;;;4.55;0.88;;;10.10;99.90;;;;;;5110777;28;19914;-83
2022/09/18 03:49:34;;;;;;;8.80;1.23;;;10.10;99.90;;;;;;5110528;28;20546;-84
2022/09/18 03:52:00;;;;;;;;;;;10.10;99.90;;;;;;5097820;28;20047;-84
2022/09/18 03:54:25;;;;;;;7.97;1.83;;;10.10;99.90;;;;;;5110636;28;20434;-85
2022/09/18 03:56:51;;;;;;;;;;;10.10;99.90;;;;;;5112904;28;20026;-84
2022/09/18 03:59:16;;;;;;;6.05;2.30;;;10.00;99.90;;;;;;5111613;28;20322;-86
2022/09/18 04:01:42;;;;;;;;;;;10.00;99.90;;;;;;5112832;28;20042;-85
2022/09/18 04:04:08;;;;;;;4.00;1.60;;;10.00;99.90;;;;;;5112664;28;20359;-87
2022/09/18 04:06:33;;;;;;;;;;;9.90;99.90;;;;;;5112758;28;20065;-85
2022/09/18 04:08:59;;;;;;;6.45;1.67;;;9.90;99.90;;;;;;5110839;28;19914;-85
2022/09/18 04:11:24;;;;;;;;;;;9.90;99.90;;;;;;5102740;28;20074;-85
2022/09/18 04:13:50;;;;;;;4.47;1.33;;;9.80;99.90;;;;;;5090204;28;19907;-85
2022/09/18 04:16:16;;;;;;;;;;;9.80;99.90;;;;;;5091330;28;20032;-85
2022/09/18 04:18:43;;;;;;;5.80;1.30;;;9.80;99.90;;;;;;5091808;28;19908;-84
2022/09/18 04:21:09;;;;;;;9.80;1.80;;;9.80;99.90;;;;;;5110825;28;20027;-84
2022/09/18 04:23:34;;;;;;;;;;;9.80;99.90;;;;;;5110412;28;20408;-85
2022/09/18 04:26:07;;;;;;;7.50;1.42;;;9.80;99.90;;;;;;5126202;27;20834;-84
2022/09/18 04:28:33;;;;;;;10.88;1.90;;;9.80;99.90;;;;;;5112257;28;20472;-83
2022/09/18 04:30:59;;;;;;;;;;;9.80;99.90;;;;;;5110167;28;20085;-82
2022/09/18 04:33:24;;;;;;;6.97;1.60;;;9.80;99.90;;;;;;5109265;28;19922;-82
2022/09/18 04:35:50;;;;;;;;;;;9.80;99.90;;;;;;5096290;28;20168;-82
2022/09/18 04:38:15;;;;;;;4.63;1.15;;;9.70;99.90;;;;;;5089442;28;19904;-83
2022/09/18 04:40:41;;;;;;;;;;;9.70;99.90;;;;;;5089038;28;20020;-83
2022/09/18 04:43:09;;;;;;;8.23;1.55;;;9.70;99.90;;;;;;5097595;28;19910;-85
2022/09/18 04:45:34;;;;;;;9.15;2.33;;;9.70;99.90;;;;;;5109162;28;20031;-84
2022/09/18 04:48:00;;;;;;;;;;;9.60;99.90;;;;;;5106386;28;20049;-85
2022/09/18 04:50:26;;;;;;;3.42;1.27;;;9.60;99.90;;;;;;5110694;28;19904;-84
2022/09/18 04:52:52;;;;;;;;;;;9.50;99.90;;;;;;5111105;28;20372;-84
2022/09/18 04:55:17;;;;;;;9.50;1.65;;;9.50;99.90;;;;;;5109795;28;19908;-83
2022/09/18 04:57:43;;;;;;;;;;;9.40;99.90;;;;;;5112010;28;20043;-84
2022/09/18 05:00:09;;;;;;;4.72;1.40;;;9.40;99.90;;;;;;5111559;28;20017;-83
2022/09/18 05:02:35;;;;;;;5.53;1.30;;;9.30;99.90;;;;;;5110521;28;20023;-84
2022/09/18 05:05:00;;;;;;;;;;;9.30;99.90;;;;;;5110784;28;20457;-84
2022/09/18 05:07:26;;;;;;;6.13;1.00;;;9.20;99.90;;;;;;5110246;28;19907;-84
2022/09/18 05:09:52;;;;;;;;;;;9.20;99.90;;;;;;5109949;28;20396;-85
2022/09/18 05:12:17;;;;;;;6.93;1.17;;;9.20;99.90;;;;;;5110489;28;19911;-85
2022/09/18 05:14:43;;;;;;;;;;;9.20;99.90;;;;;;5115537;28;20023;-84
2022/09/18 05:17:08;;;;;;;4.50;1.10;;;9.10;99.90;;;;;;5126015;28;19931;-84
2022/09/18 05:19:34;;;;;;;;;;;9.10;99.90;;;;;;5131294;28;20019;-85
2022/09/18 05:22:00;;;;;;;10.32;1.40;;;9.10;99.90;;;;;;5115633;28;19907;-85
2022/09/18 05:24:25;;;;;;;;;;;9.10;99.90;;;;;;5112717;28;20026;-85
2022/09/18 05:26:51;;;;;;;9.73;1.55;;;9.10;99.90;;;;;;5110604;28;19963;-84
2022/09/18 05:29:16;;;;;;;;;;;9.20;99.90;;;;;;5111459;28;20031;-84
2022/09/18 05:31:42;;;;;;;18.38;1.17;;;9.20;99.90;;;;;;5111280;28;19919;-85
2022/09/18 05:34:07;;;;;;;;;;;9.50;99.90;;;;;;5128363;27;20426;-85
2022/09/18 05:36:34;;;;;;;9.68;1.55;;;9.70;99.90;;;;;;5110268;28;19903;-85
2022/09/18 05:38:59;;;;;;;6.65;1.48;;;10.00;99.90;;;;;;5099390;28;20024;-86
2022/09/18 05:41:25;;;;;;;;;;;10.30;99.90;;;;;;5109410;28;20030;-86
2022/09/18 05:43:50;;;;;;;7.10;1.25;;;10.60;99.90;;;;;;5100762;28;19911;-86
2022/09/18 05:46:16;;;;;;;;;;;10.80;99.90;;;;;;5091663;28;20028;-84
2022/09/18 05:48:43;;;;;;;4.25;0.85;;;10.90;99.90;;;;;;5110128;28;19907;-85
2022/09/18 05:51:09;;;;;;;4.53;0.90;;;10.90;99.90;;;;;;5109843;28;20032;-85
2022/09/18 05:53:35;;;;;;;;;;;10.90;99.90;;;;;;5110586;28;20096;-86
2022/09/18 05:56:01;;;;;;;3.90;1.13;;;10.70;99.90;;;;;;5091184;28;19915;-87
2022/09/18 05:58:27;;;;;;;;;;;10.80;99.90;;;;;;5104546;28;20051;-87
2022/09/18 06:00:56;;;;;;;3.28;0.68;;;10.90;99.90;;;;;;5091561;28;19912;-87
2022/09/18 06:03:22;;;;;;;4.80;0.47;;;11.00;99.90;;;;;;5109384;28;20028;-87
2022/09/18 06:05:51;;;;;;;;;;;11.30;99.90;;;;;;5111047;28;20118;-87
2022/09/18 06:08:17;;;;;;;5.45;1.20;;;11.50;99.90;;;;;;5110642;28;19911;-87
2022/09/18 06:10:43;;;;;;;;;;;11.80;99.90;;;;;;5107001;28;20365;-87
2022/09/18 06:13:11;;;;;;;18.45;1.95;;;12.10;99.90;;;;;;5090159;28;19911;-86
2022/09/18 06:15:37;;;;;;;5.88;0.88;;;12.50;99.90;;;;;;5099797;28;20019;-89
2022/09/18 06:18:04;;;;;;;;;;;12.90;99.90;;;;;;5110966;28;20035;-87
2022/09/18 06:20:29;;;;;;;9.52;0.80;;;13.40;99.90;;;;;;5109029;28;20303;-87
2022/09/18 06:23:00;;;;;;;2.70;0.45;;;13.90;99.90;;;;;;5109543;28;20039;-85
2022/09/18 06:25:26;;;;;;;2.88;0.70;;;14.40;99.90;;;;;;5109956;28;20028;-88
2022/09/18 06:27:57;;;;;;;2.17;0.45;;;14.90;99.90;;;;;;5106912;28;20054;-87
2022/09/18 06:30:25;;;;;;;5.22;1.23;;;15.50;99.90;;;;;;5089404;28;20214;-87
2022/09/18 06:32:50;;;;;;;6.55;0.60;;;16.00;99.90;;;;;;5090642;28;20032;-88
2022/09/18 06:35:16;;;;;;;4.82;0.40;;;16.60;99.90;;;;;;5114550;28;20062;-88
2022/09/18 06:37:42;;;;;;;3.72;0.57;;;17.00;99.90;;;;;;5092332;28;20028;-88
2022/09/18 06:40:08;;;;;;;2.92;0.70;;;17.40;99.90;;;;;;5090754;28;20031;-89
2022/09/18 06:42:34;;;;;;;7.65;0.60;;;17.80;99.90;;;;;;5104536;28;20054;-89
2022/09/18 06:44:59;;;;;;;5.15;1.05;;;18.50;99.90;;;;;;5110950;28;20031;-89
2022/09/18 06:47:25;;;;;;;7.28;0.90;;;18.80;97.40;;;;;;5102041;28;20119;-88
2022/09/18 06:49:50;;;;;;;2.50;0.60;;;19.00;96.90;;;;;;5110010;28;20495;-88
2022/09/18 06:52:16;;;;;;;2.85;0.60;;;19.40;96.30;;;;;;5109318;28;20031;-89
2022/09/18 06:54:41;;;;;;;8.13;0.70;;;19.70;94.90;;;;;;5109869;28;20081;-89
2022/09/18 06:57:07;;;;;;;3.00;0.65;;;20.00;93.90;;;;;;5109821;28;20488;-88
2022/09/18 06:59:33;;;;;;;10.10;0.50;;;20.30;93.10;;;;;;5100222;28;20036;-89
2022/09/18 07:01:58;;;;;;;3.88;0.70;;;20.60;91.90;;;;;;5095974;28;20025;-89
2022/09/18 07:04:24;;;;;;;2.30;0.50;;;20.80;90.70;;;;;;5109170;28;20031;-90
2022/09/18 07:06:50;;;;;;;4.15;0.77;;;20.60;90.00;;;;;;5089131;28;20024;-89
2022/09/18 07:09:16;;;;;;;5.45;0.77;;;21.00;87.10;;;;;;5108470;28;20039;-89
2022/09/18 07:11:41;;;;;;;7.00;0.68;;;20.80;85.90;;;;;;5097835;28;20036;-89
2022/09/18 07:14:07;;;;;;;1.90;0.50;;;20.80;83.30;;;;;;5088683;28;20478;-90
2022/09/18 07:16:34;;;;;;;5.55;0.52;;;20.80;83.20;;;;;;5097117;28;20032;-89
2022/09/18 07:18:59;;;;;;;3.70;0.82;;;20.80;83.10;;;;;;5109529;28;20030;-88
2022/09/18 07:21:25;;;;;;;5.75;0.95;;;21.20;80.70;;;;;;5110712;28;20391;-88
2022/09/18 07:23:51;;;;;;;5.10;0.45;;;21.00;80.70;;;;;;5109313;28;20019;-89
2022/09/18 07:26:18;;;;;;;3.55;0.50;;;21.10;78.70;;;;;;5106094;28;20029;-89
2022/09/18 07:28:44;;;;;;;2.35;0.52;;;21.20;78.90;;;;;;5089010;28;20031;-89
2022/09/18 07:31:10;;;;;;;5.05;0.50;;;21.10;78.60;;;;;;5090020;28;20036;-88
2022/09/18 07:33:36;;;;;;;2.03;0.45;;;21.20;78.70;;;;;;5097054;28;20059;-89
2022/09/18 07:36:03;;;;;;;1.70;0.40;;;21.70;76.20;;;;;;5104155;28;20055;-88
2022/09/18 07:38:29;;;;;;;6.78;0.85;;;21.90;77.10;;;;;;5111031;28;20487;-89
2022/09/18 07:40:55;;;;;;;4.20;0.82;;;22.10;76.50;;;;;;5114497;27;20079;-89
2022/09/18 07:43:20;;;;;;;6.45;0.57;;;22.30;74.50;;;;;;5104948;28;20055;-89
2022/09/18 07:45:46;;;;;;;2.63;0.60;;;22.30;73.30;;;;;;5096344;28;20031;-88
2022/09/18 07:48:12;;;;;;;4.72;1.20;;;21.90;73.20;;;;;;5114069;28;20103;-89
2022/09/18 07:50:38;;;;;;;2.15;0.40;;;21.70;73.60;;;;;;5112449;28;20047;-89
2022/09/18 07:53:04;;;;;;;3.97;0.98;;;21.50;73.70;;;;;;5113016;28;20561;-89
2022/09/18 07:55:32;;;;;;;2.03;0.50;;;21.40;74.20;;;;;;5112059;28;20024;-89
2022/09/18 07:58:01;;;;;;;2.67;0.40;;;21.40;73.80;;;;;;5112587;28;20134;-88
2022/09/18 08:00:29;;;;;;;7.57;0.50;;;21.50;73.50;;;;;;5093939;28;20381;-87
2022/09/18 08:03:24;;;;;;;2.75;0.80;;;21.60;74.10;;;;;;5093531;28;20020;-88
2022/09/18 08:05:52;;;;;;;2.33;0.60;;;21.70;71.90;;;;;;5079657;28;20036;-87
2022/09/18 08:08:18;;;;;;;2.53;0.55;;;21.40;71.40;;;;;;5092419;28;20489;-89
2022/09/18 08:10:44;;;;;;;3.15;0.40;;;21.40;73.10;;;;;;5090995;28;20076;-88
2022/09/18 08:13:10;;;;;;;1.95;0.30;;;21.40;74.40;;;;;;5093899;28;20028;-88
2022/09/18 08:15:38;;;;;;;4.97;0.73;;;21.60;73.30;;;;;;5107748;28;20055;-88
2022/09/18 08:18:05;;;;;;;10.23;0.50;;;21.60;73.80;;;;;;5112307;28;20165;-89
2022/09/18 08:20:30;;;;;;;3.85;0.40;;;21.60;71.40;;;;;;5112203;28;20031;-88
2022/09/18 08:22:57;;;;;;;5.07;0.50;;;21.50;71.50;;;;;;5112935;28;20443;-88
2022/09/18 08:25:23;;;;;;;4.53;0.50;;;20.90;71.70;;;;;;5112497;28;20031;-87
2022/09/18 08:27:48;;;;;;;1.35;0.30;;;20.30;73.40;;;;;;5126858;28;20043;-88
2022/09/18 08:30:15;;;;;;;3.25;0.50;;;19.60;74.80;;;;;;5129983;28;20035;-88
2022/09/18 08:32:40;;;;;;;2.78;0.57;;;19.60;75.40;;;;;;5119682;28;20042;-87
2022/09/18 08:35:07;;;;;;;3.75;0.35;;;19.60;76.30;;;;;;5114878;28;20048;-88
2022/09/18 08:37:33;;;;;;;2.63;0.40;;;19.60;77.60;;;;;;5113252;28;20034;-88
2022/09/18 08:39:58;;;;;;;1.55;0.30;;;19.10;78.10;;;;;;5111732;28;20468;-88
2022/09/18 08:42:45;;;;;;;1.13;0.20;;;18.80;78.90;;;;;;5112043;28;20114;-87
2022/09/18 08:45:16;;;;;;;1.63;0.40;;;18.40;79.00;;;;;;5110978;28;20147;-88
2022/09/18 08:47:56;;;;;;;1.60;0.40;;;18.30;80.30;;;;;;5107292;28;20537;-87
2022/09/18 08:50:35;;;;;;;1.27;0.30;;;18.50;79.00;;;;;;5110570;28;20530;-87
2022/09/18 08:53:35;;;;;;;2.10;0.30;;;18.40;79.70;;;;;;5091137;28;20507;-87
2022/09/18 08:56:05;;;;;;;4.47;0.55;;;18.50;80.00;;;;;;5100364;28;20080;-87
2022/09/18 08:58:45;;;;;;;1.13;0.32;;;18.80;80.20;;;;;;5110967;28;20050;-87
2022/09/18 09:01:16;;;;;;;4.28;0.30;;;18.90;79.60;;;;;;5108796;28;20027;-88
2022/09/18 09:04:07;;;;;;;3.63;0.30;;;18.60;78.50;;;;;;5089858;28;20492;-88
2022/09/18 09:06:36;;;;;;;3.47;0.55;;;18.50;78.60;;;;;;5099132;28;20706;-87
2022/09/18 09:09:23;;;;;;;6.28;0.50;;;18.10;80.40;;;;;;5090034;28;20066;-87
2022/09/18 09:12:11;;;;;;;2.70;0.43;;;18.00;81.60;;;;;;5096709;28;20044;-87
2022/09/18 09:15:16;;;;;;;2.55;0.38;;;18.50;82.20;;;;;;5104940;28;20036;-87
2022/09/18 09:17:50;;;;;;;1.38;0.30;;;19.00;80.20;;;;;;5111502;28;20027;-87
2022/09/18 09:20:22;;;;;;;3.58;0.38;;;19.40;77.70;;;;;;5093467;28;20016;-87
2022/09/18 09:23:06;;;;;;;1.95;0.57;;;19.80;77.90;;;;;;5092029;28;20039;-87
2022/09/18 09:25:48;;;;;;;1.70;0.40;;;19.70;77.00;;;;;;5091796;28;20495;-87
2022/09/18 09:28:25;;;;;;;5.30;0.70;;;19.40;78.30;;;;;;5110128;28;20069;-88
2022/09/18 09:30:58;;;;;;;2.78;1.08;;;19.20;79.50;;;;;;5099620;28;20493;-88
2022/09/18 09:33:32;;;;;;;2.45;0.50;;;19.00;81.70;;;;;;5090830;28;20028;-87
2022/09/18 09:36:14;;;;;;;2.05;0.43;;;19.60;80.60;;;;;;5095919;28;20114;-89
2022/09/18 09:38:47;;;;;;;3.25;0.30;;;20.30;79.40;;;;;;5091916;28;20035;-90
2022/09/18 09:41:28;;;;;;;1.80;0.40;;;20.60;75.20;;;;;;5090734;28;20067;-87
2022/09/18 09:44:20;;;;;;;1.35;0.32;;;20.30;76.50;;;;;;5090131;28;20070;-87
2022/09/18 09:47:06;;;;;;;1.65;0.30;;;19.90;74.80;;;;;;5088716;28;20055;-87
2022/09/18 09:49:52;;;;;;;;;;;19.30;77.70;;;;;;5089981;28;20424;-88
2022/09/18 09:52:27;;;;;;;1.15;0.30;;;18.70;78.20;;;;;;5106565;28;19998;-88
2022/09/18 09:55:12;;;;;;;10.68;0.57;;;18.00;79.10;;;;;;5110586;28;20127;-88
2022/09/18 09:57:50;;;;;;;1.65;0.40;;;17.40;80.80;;;;;;5095746;28;20028;-87
2022/09/18 10:00:18;;;;;;;1.95;0.43;;;17.40;84.90;;;;;;5107319;28;20034;-88
2022/09/18 10:02:53;;;;;;;2.03;0.20;;;17.30;84.80;;;;;;5097332;28;20492;-87
2022/09/18 10:05:27;;;;;;;4.10;0.45;;;17.30;84.30;;;;;;5110331;28;20024;-87
2022/09/18 10:08:05;;;;;;;2.42;0.30;;;17.20;83.50;;;;;;5106364;28;20032;-88
2022/09/18 10:10:44;;;;;;;3.08;0.40;;;17.00;83.60;;;;;;5108043;28;20023;-88
2022/09/18 10:13:35;;;;;;;2.95;0.45;;;16.50;84.60;;;;;;5091115;28;20077;-88
2022/09/18 10:16:15;;;;;;;3.58;0.50;;;16.20;86.80;;;;;;5100384;28;20113;-88
2022/09/18 10:18:44;;;;;;;0.93;0.20;;;15.80;88.80;;;;;;5095324;28;20395;-88
2022/09/18 10:21:23;;;;;;;4.18;0.20;;;15.70;90.50;;;;;;5109595;28;20027;-89
2022/09/18 10:24:13;;;;;;;2.15;0.30;;;15.60;90.60;;;;;;5110114;28;20027;-87
2022/09/18 10:26:51;;;;;;;1.50;0.25;;;15.60;90.90;;;;;;5110264;28;20711;-88
2022/09/18 10:29:17;;;;;;;3.00;0.20;;;15.60;91.10;;;;;;5110714;28;20032;-88
2022/09/18 10:31:56;;;;;;;2.20;0.38;;;15.60;90.70;;;;;;5110210;28;20028;-87
2022/09/18 10:34:34;;;;;;;1.50;0.30;;;15.60;90.60;;;;;;5109504;28;20316;-88
2022/09/18 10:37:00;;;;;;;4.38;0.22;;;15.50;90.90;;;;;;5111891;28;20483;-87
2022/09/18 10:39:28;;;;;;;0.73;0.20;;;15.40;91.40;;;;;;5113488;28;20081;-88
2022/09/18 10:42:16;;;;;;;4.47;0.20;;;15.40;91.50;;;;;;5109875;28;20019;-87
2022/09/18 10:44:52;;;;;;;4.13;0.30;;;15.30;92.10;;;;;;5111574;28;20426;-88
2022/09/18 10:47:36;;;;;;;0.68;0.20;;;15.20;92.20;;;;;;5110249;28;20031;-88
2022/09/18 10:50:05;;;;;;;4.57;1.27;;;15.30;92.00;;;;;;5110420;28;20567;-88
2022/09/18 10:52:36;;;;;;;4.97;0.40;;;15.30;92.30;;;;;;5109896;28;20036;-88
2022/09/18 10:55:06;;;;;;;7.38;0.35;;;15.30;92.30;;;;;;5109818;28;20112;-88
2022/09/18 10:57:57;;;;;;;2.38;0.30;;;15.20;92.50;;;;;;5111390;28;20104;-87
2022/09/18 11:00:28;;;;;;;2.00;0.40;;;15.20;93.30;;;;;;5109470;28;20096;-88
2022/09/18 11:03:02;;;;;;;3.95;0.30;;;15.30;93.30;;;;;;5110499;28;20476;-88
2022/09/18 11:05:36;;;;;;;2.03;0.20;;;15.50;93.10;;;;;;5110088;28;20028;-87
2022/09/18 11:08:18;;;;;;;2.10;0.30;;;15.60;93.00;;;;;;5110954;28;20027;-88
2022/09/18 11:11:17;;;;;;;2.75;0.57;;;15.70;93.10;;;;;;5113894;28;20031;-87
2022/09/18 11:13:50;;;;;;;3.33;0.22;;;15.80;93.10;;;;;;5111309;28;20085;-88
2022/09/18 11:16:28;;;;;;;1.80;0.30;;;16.00;92.30;;;;;;5112090;28;20046;-89
2022/09/18 11:19:27;;;;;;;3.70;0.43;;;16.10;92.30;;;;;;5106678;28;20028;-88
2022/09/18 11:21:55;;;;;;;2.70;0.30;;;16.30;91.60;;;;;;5064544;28;20036;-88
2022/09/18 11:24:30;;;;;;;4.10;0.32;;;16.40;92.30;;;;;;5091505;28;20032;-87
2022/09/18 11:27:01;;;;;;;1.45;0.32;;;16.50;91.60;;;;;;5099635;28;20031;-89
2022/09/18 11:29:29;;;;;;;3.03;0.30;;;16.60;93.00;;;;;;5113316;28;20027;-87
2022/09/18 11:32:24;;;;;;;0.80;0.28;;;16.90;92.30;;;;;;5114548;28;20039;-88
2022/09/18 11:35:00;;;;;;;1.25;0.20;;;17.00;91.70;;;;;;5116184;28;20030;-87
2022/09/18 11:37:36;;;;;;;1.42;0.22;;;16.80;91.30;;;;;;5135115;28;20059;-88
2022/09/18 11:40:43;;;;;;;1.65;0.15;;;16.70;91.30;;;;;;5128936;28;20028;-88
2022/09/18 11:43:24;;;;;;;3.45;0.30;;;16.40;91.10;;;;;;5101964;28;20063;-88
2022/09/18 11:46:21;;;;;;;4.43;0.43;;;15.90;92.00;;;;;;5092864;28;20027;-87
2022/09/18 11:48:53;;;;;;;0.30;0.10;;;15.50;92.20;;;;;;5092651;28;20020;-87
2022/09/18 11:51:25;;;;;;;0.68;0.17;;;15.30;92.70;;;;;;5102481;28;20059;-87
2022/09/18 11:54:01;;;;;;;3.20;0.20;;;15.20;93.50;;;;;;5113132;28;20479;-88
2022/09/18 11:56:50;;;;;;;4.85;0.20;;;15.10;93.60;;;;;;5113019;28;20034;-87
2022/09/18 11:59:41;;;;;;;1.95;0.20;;;15.10;94.20;;;;;;5104020;27;20075;-88
2022/09/18 12:02:25;;;;;;;1.45;0.20;;;15.00;94.20;;;;;;5095147;28;20050;-86
2022/09/18 12:04:55;;;;;;;1.65;0.40;;;15.00;94.20;;;;;;5113003;28;20465;-87
2022/09/18 12:07:24;;;;;;;0.93;0.20;;;15.00;94.40;;;;;;5112839;28;20024;-87
2022/09/18 12:09:59;;;;;;;2.80;0.20;;;15.00;94.60;;;;;;5112288;28;20024;-87
2022/09/18 12:12:40;;;;;;;0.73;0.10;;;15.00;94.50;;;;;;5093543;28;20036;-88
2022/09/18 12:15:15;;;;;;;0.45;0.17;;;15.00;94.70;;;;;;5102425;28;20405;-88
2022/09/18 12:17:56;;;;;;;3.50;0.20;;;15.10;94.80;;;;;;5113637;28;20034;-87
2022/09/18 12:20:27;;;;;;;3.85;0.10;;;15.00;95.20;;;;;;5110720;28;20031;-87
2022/09/18 12:22:55;;;;;;;1.95;0.20;;;15.10;94.80;;;;;;5105407;28;20065;-88
2022/09/18 12:25:48;;;;;;;4.20;0.20;;;15.10;95.10;;;;;;5092093;28;20024;-87
2022/09/18 12:28:38;;;;;;;1.73;0.20;;;15.20;95.20;;;;;;5093360;28;20039;-88
2022/09/18 12:31:15;;;;;;;1.13;0.20;;;15.20;95.30;;;;;;5091336;28;20369;-87
2022/09/18 12:34:11;;;;;;;3.58;0.40;;;15.20;95.40;;;;;;5091629;28;20036;-87
2022/09/18 12:36:51;;;;;;;0.73;0.22;;;15.20;95.50;;;;;;5092396;28;20020;-87
2022/09/18 12:39:25;;;;;;;1.77;0.20;;;15.30;95.80;;;;;;5091626;28;20024;-88
2022/09/18 12:42:31;;;;;;;0.80;0.20;;;15.40;95.10;;;;;;5108195;28;20089;-87
2022/09/18 12:45:22;;;;;;;0.52;0.28;;;15.60;95.80;;;;;;5108564;28;20031;-87
2022/09/18 12:47:53;;;;;;;1.25;0.20;;;15.70;95.00;;;;;;5107873;28;20058;-88
2022/09/18 12:50:45;;;;;;;0.95;0.20;;;15.80;95.20;;;;;;5092676;28;20047;-88
2022/09/18 12:53:38;;;;;;;5.03;0.30;;;15.80;95.00;;;;;;5108147;28;20047;-87
2022/09/18 12:56:12;;;;;;;2.80;0.45;;;15.70;95.00;;;;;;5092014;28;20075;-86
2022/09/18 12:58:56;;;;;;;1.98;0.20;;;15.70;95.00;;;;;;5106185;28;20079;-88
2022/09/18 13:01:21;;;;;;;2.58;0.40;;;15.70;95.30;;;;;;5108797;28;20024;-88
2022/09/18 13:03:49;;;;;;;4.88;1.30;;;15.70;94.90;;;;;;5111448;28;20019;-87
2022/09/18 13:06:22;;;;;;;3.90;0.30;;;15.70;94.80;;;;;;5111269;28;20480;-87
2022/09/18 13:09:08;;;;;;;2.00;0.30;;;15.70;94.60;;;;;;5111924;28;20028;-87
2022/09/18 13:11:37;;;;;;;0.45;0.20;;;15.80;95.10;;;;;;5111184;28;20046;-89
2022/09/18 13:14:10;;;;;;;3.08;0.63;;;15.90;95.50;;;;;;5111333;28;20031;-89
2022/09/18 13:16:44;;;;;;;2.97;0.40;;;16.00;95.30;;;;;;5111548;28;20032;-89
2022/09/18 13:19:27;;;;;;;3.47;0.40;;;16.10;94.90;;;;;;5111384;28;20028;-88
2022/09/18 13:21:56;;;;;;;1.45;0.35;;;16.20;94.60;;;;;;5110433;28;20024;-88
2022/09/18 13:24:34;;;;;;;7.20;0.40;;;16.20;94.30;;;;;;5111648;28;20020;-88
2022/09/18 13:27:08;;;;;;;1.27;0.30;;;16.30;94.40;;;;;;5111744;28;20027;-88